Time;durP1;ratioP1;P1;durP2;ratioP2;P2;SDS_P1;SDS_P2;PMS_P1;PMS_P2;Temp;Humidity;BMP_temperature;BMP_pressure;BME280_temperature;BME280_humidity;BME280_pressure;Samples;Min_cycle;Max_cycle;Signal;HPM_P1;HPM_P2
2023/07/05 00:00:27;;;;;;;6.80;2.42;;;12.10;99.90;;;;;;5050271;28;20071;-64
2023/07/05 00:02:54;;;;;;;4.30;2.53;;;12.10;99.90;;;;;;5043359;28;20369;-64
2023/07/05 00:05:21;;;;;;;4.35;1.75;;;12.10;99.90;;;;;;5037702;28;20060;-66
2023/07/05 00:07:48;;;;;;;5.10;2.15;;;12.20;99.90;;;;;;5037036;28;20492;-64
2023/07/05 00:10:15;;;;;;;2.45;1.73;;;12.10;99.90;;;;;;5039725;28;20515;-64
2023/07/05 00:12:42;;;;;;;7.43;2.20;;;12.10;99.90;;;;;;5048112;28;20045;-66
2023/07/05 00:15:09;;;;;;;3.42;2.20;;;12.10;99.90;;;;;;5044910;28;20049;-66
2023/07/05 00:17:36;;;;;;;6.43;2.30;;;12.00;99.90;;;;;;5036623;28;20407;-65
2023/07/05 00:20:04;;;;;;;2.90;2.05;;;12.10;99.90;;;;;;5042040;28;20076;-65
2023/07/05 00:22:31;;;;;;;3.08;2.17;;;12.10;99.90;;;;;;5031814;28;20056;-64
2023/07/05 00:24:57;;;;;;;3.72;2.42;;;12.10;99.90;;;;;;5040582;28;20105;-65
2023/07/05 00:27:24;;;;;;;6.20;2.83;;;12.10;99.90;;;;;;5033034;28;20100;-65
2023/07/05 00:29:54;;;;;;;9.93;3.50;;;12.20;99.90;;;;;;4688642;28;10000379;-64
2023/07/05 00:32:21;;;;;;;3.58;2.63;;;12.10;99.90;;;;;;5030733;28;20317;-65
2023/07/05 00:34:48;;;;;;;4.60;3.47;;;12.20;99.90;;;;;;5038157;28;20045;-65
2023/07/05 00:37:15;;;;;;;7.32;3.47;;;12.20;99.90;;;;;;5041904;28;20503;-65
2023/07/05 00:39:41;;;;;;;6.90;3.58;;;12.20;99.90;;;;;;5029133;28;20048;-65
2023/07/05 00:42:08;;;;;;;3.97;3.13;;;12.20;99.90;;;;;;5039516;28;20056;-66
2023/07/05 00:44:35;;;;;;;6.28;3.63;;;12.30;99.90;;;;;;5041413;28;20511;-65
2023/07/05 00:47:14;;;;;;;7.47;3.63;;;12.20;99.90;;;;;;5037242;28;20037;-65
2023/07/05 00:49:40;;;;;;;5.97;3.75;;;12.30;99.90;;;;;;5013665;28;20049;-65
2023/07/05 00:52:14;;;;;;;4.88;3.58;;;12.30;99.90;;;;;;5030988;28;20051;-65
2023/07/05 00:54:44;;;;;;;6.53;4.03;;;12.40;99.90;;;;;;5000513;28;20062;-64
2023/07/05 00:57:22;;;;;;;7.30;4.25;;;12.30;99.90;;;;;;4995129;28;20053;-65
2023/07/05 00:59:57;;;;;;;7.45;4.22;;;12.30;99.90;;;;;;5005468;28;20038;-65
2023/07/05 01:02:24;;;;;;;6.10;4.35;;;12.30;99.90;;;;;;4981033;28;20050;-64
2023/07/05 01:04:51;;;;;;;6.18;4.35;;;12.30;99.90;;;;;;5003485;28;20047;-66
2023/07/05 01:07:18;;;;;;;8.27;3.85;;;12.30;99.90;;;;;;4995751;28;20046;-65
2023/07/05 01:09:47;;;;;;;10.82;4.07;;;12.40;99.90;;;;;;5000785;28;20054;-64
2023/07/05 01:12:32;;;;;;;7.57;4.15;;;12.30;99.90;;;;;;5001543;28;20054;-64
2023/07/05 01:15:22;;;;;;;9.43;5.18;;;12.30;99.90;;;;;;4992716;28;20050;-64
2023/07/05 01:17:58;;;;;;;6.32;4.30;;;12.30;99.90;;;;;;5002971;28;20050;-64
2023/07/05 01:20:42;;;;;;;7.53;4.45;;;12.30;99.90;;;;;;5002946;28;20089;-64
2023/07/05 01:23:45;;;;;;;8.07;4.63;;;12.30;99.90;;;;;;5005547;28;20053;-64
2023/07/05 01:26:50;;;;;;;9.05;5.10;;;12.30;99.90;;;;;;4997008;28;20053;-66
2023/07/05 01:29:32;;;;;;;6.20;4.57;;;12.30;99.90;;;;;;5005590;28;20328;-64
2023/07/05 01:32:23;;;;;;;10.73;4.95;;;12.30;99.90;;;;;;4998519;28;20124;-66
2023/07/05 01:34:55;;;;;;;7.32;4.55;;;12.30;99.90;;;;;;5011773;28;20054;-64
2023/07/05 01:37:29;;;;;;;10.40;5.35;;;12.30;99.90;;;;;;4997586;28;20444;-65
2023/07/05 01:39:56;;;;;;;7.25;4.10;;;12.40;99.90;;;;;;5003032;28;20469;-65
2023/07/05 01:42:26;;;;;;;8.13;5.28;;;12.30;99.90;;;;;;4996840;28;20046;-64
2023/07/05 01:44:53;;;;;;;7.45;4.25;;;12.30;99.90;;;;;;5002564;28;20042;-64
2023/07/05 01:47:37;;;;;;;14.07;4.45;;;12.30;99.90;;;;;;4995770;28;20469;-64
2023/07/05 01:50:04;;;;;;;7.32;3.75;;;12.30;99.90;;;;;;5002012;28;20053;-64
2023/07/05 01:52:47;;;;;;;9.30;4.10;;;12.30;99.90;;;;;;4997704;28;20077;-65
2023/07/05 01:55:20;;;;;;;6.57;4.47;;;12.30;99.90;;;;;;5014135;28;20060;-65
2023/07/05 01:57:51;;;;;;;9.23;4.28;;;12.30;99.90;;;;;;5010676;28;20095;-65
2023/07/05 02:00:19;;;;;;;8.52;4.10;;;12.30;99.90;;;;;;5014005;28;20055;-65
2023/07/05 02:02:52;;;;;;;7.85;3.80;;;12.30;99.90;;;;;;5042395;28;20045;-65
2023/07/05 02:05:19;;;;;;;6.70;3.90;;;12.30;99.90;;;;;;5023651;28;20106;-65
2023/07/05 02:07:46;;;;;;;6.35;3.70;;;12.30;99.90;;;;;;5019721;28;20055;-65
2023/07/05 02:10:14;;;;;;;10.27;3.95;;;12.20;99.90;;;;;;5046246;28;20052;-65
2023/07/05 02:12:41;;;;;;;5.28;3.78;;;12.20;99.90;;;;;;5039716;28;20500;-65
2023/07/05 02:15:08;;;;;;;5.38;3.33;;;12.20;99.90;;;;;;5036928;28;20076;-64
2023/07/05 02:17:38;;;;;;;4.50;2.83;;;12.20;99.90;;;;;;5040121;28;20052;-65
2023/07/05 02:20:09;;;;;;;8.02;2.15;;;12.20;99.90;;;;;;5035111;28;20132;-65
2023/07/05 02:22:36;;;;;;;5.65;3.47;;;12.10;99.90;;;;;;5040031;28;20639;-65
2023/07/05 02:25:03;;;;;;;9.52;3.17;;;12.10;99.90;;;;;;5035960;28;20081;-65
2023/07/05 02:27:30;;;;;;;4.78;2.95;;;12.10;99.90;;;;;;5028757;28;20064;-64
2023/07/05 02:29:57;;;;;;;4.03;2.13;;;12.10;99.90;;;;;;5028238;28;20052;-65
2023/07/05 02:32:24;;;;;;;4.82;2.30;;;12.00;99.90;;;;;;5042359;28;20049;-64
2023/07/05 02:34:52;;;;;;;5.07;2.33;;;12.00;99.90;;;;;;5038589;28;20104;-64
2023/07/05 02:37:19;;;;;;;8.57;3.58;;;11.90;99.90;;;;;;5029821;28;20524;-64
2023/07/05 02:39:46;;;;;;;7.25;2.17;;;11.90;99.90;;;;;;5030503;28;20069;-64
2023/07/05 02:42:13;;;;;;;5.07;3.50;;;11.80;99.90;;;;;;5031585;28;20052;-65
2023/07/05 02:44:40;;;;;;;5.35;2.60;;;11.80;99.90;;;;;;5042754;28;20045;-64
2023/07/05 02:47:07;;;;;;;4.40;2.50;;;11.80;99.90;;;;;;5034653;28;20045;-64
2023/07/05 02:49:34;;;;;;;7.53;2.35;;;11.70;99.90;;;;;;5043100;28;20051;-64
2023/07/05 02:52:01;;;;;;;3.45;2.25;;;11.70;99.90;;;;;;5041730;28;20515;-65
2023/07/05 02:54:28;;;;;;;7.00;2.22;;;11.60;99.90;;;;;;5039313;28;20064;-65
2023/07/05 02:56:54;;;;;;;9.23;2.67;;;11.60;99.90;;;;;;5043734;28;20053;-64
2023/07/05 02:59:22;;;;;;;6.82;2.30;;;11.60;99.90;;;;;;5041976;28;20053;-64
2023/07/05 03:01:49;;;;;;;5.88;2.00;;;11.50;99.90;;;;;;5041661;28;20045;-64
2023/07/05 03:04:16;;;;;;;7.35;2.25;;;11.50;99.90;;;;;;5043091;28;20072;-63
2023/07/05 03:06:43;;;;;;;3.72;1.90;;;11.50;99.90;;;;;;5039331;28;20053;-63
2023/07/05 03:09:11;;;;;;;4.45;1.75;;;11.40;99.90;;;;;;5042912;28;20451;-64
2023/07/05 03:11:37;;;;;;;4.85;2.20;;;11.40;99.90;;;;;;5047686;28;20559;-63
2023/07/05 03:14:04;;;;;;;7.75;2.60;;;11.40;99.90;;;;;;5043926;28;20045;-65
2023/07/05 03:16:31;;;;;;;4.65;2.05;;;11.40;99.90;;;;;;5047919;28;20514;-65
2023/07/05 03:18:58;;;;;;;6.63;1.75;;;11.30;99.90;;;;;;5044753;28;20056;-64
2023/07/05 03:21:25;;;;;;;4.82;2.05;;;11.30;99.90;;;;;;5037688;28;20456;-64
2023/07/05 03:23:52;;;;;;;6.65;1.92;;;11.20;99.90;;;;;;5044545;28;20052;-64
2023/07/05 03:26:19;;;;;;;7.20;2.35;;;11.20;99.90;;;;;;5038099;28;20046;-67
2023/07/05 03:28:45;;;;;;;3.70;1.85;;;11.20;99.90;;;;;;5048089;28;20138;-66
2023/07/05 03:31:13;;;;;;;4.70;1.92;;;11.20;99.90;;;;;;5046214;28;20052;-64
2023/07/05 03:33:40;;;;;;;3.65;2.08;;;11.10;99.90;;;;;;5049829;28;20324;-65
2023/07/05 03:36:13;;;;;;;11.00;2.38;;;11.10;99.90;;;;;;5038334;28;20052;-64
2023/07/05 03:38:39;;;;;;;4.57;2.00;;;11.10;99.90;;;;;;5027920;28;20099;-64
2023/07/05 03:41:14;;;;;;;8.48;2.10;;;11.10;99.90;;;;;;5031563;28;20037;-65
2023/07/05 03:43:41;;;;;;;4.57;2.28;;;11.10;99.90;;;;;;5018076;28;20115;-64
2023/07/05 03:46:10;;;;;;;7.28;3.03;;;11.00;99.90;;;;;;5038947;28;20057;-64
2023/07/05 03:48:42;;;;;;;6.47;2.10;;;11.00;99.90;;;;;;5027621;28;20087;-65
2023/07/05 03:51:10;;;;;;;7.53;2.22;;;11.00;99.90;;;;;;5044337;28;20055;-64
2023/07/05 03:53:37;;;;;;;5.50;1.65;;;11.00;99.90;;;;;;5041354;28;20617;-64
2023/07/05 03:56:05;;;;;;;3.42;1.67;;;11.00;99.90;;;;;;5030931;28;20099;-64
2023/07/05 03:58:32;;;;;;;8.57;1.83;;;11.00;99.90;;;;;;5034572;28;20046;-63
2023/07/05 04:01:08;;;;;;;7.55;1.73;;;11.00;99.90;;;;;;5018476;28;20455;-63
2023/07/05 04:03:35;;;;;;;4.93;1.55;;;10.90;99.90;;;;;;5023641;28;20053;-64
2023/07/05 04:06:02;;;;;;;8.45;2.15;;;11.00;99.90;;;;;;5039361;28;20110;-66
2023/07/05 04:08:29;;;;;;;5.10;1.90;;;10.90;99.90;;;;;;5043425;28;20067;-64
2023/07/05 04:10:56;;;;;;;6.60;2.30;;;10.80;99.90;;;;;;5035070;28;20045;-64
2023/07/05 04:13:23;;;;;;;5.25;2.38;;;10.90;99.90;;;;;;5024514;28;20265;-63
2023/07/05 04:16:00;;;;;;;8.65;2.60;;;10.90;99.90;;;;;;5034432;28;20132;-64
2023/07/05 04:18:29;;;;;;;7.03;1.83;;;10.90;99.90;;;;;;5041849;28;20041;-64
2023/07/05 04:20:56;;;;;;;6.95;2.03;;;10.90;99.90;;;;;;5042093;28;20049;-64
2023/07/05 04:23:24;;;;;;;6.63;2.08;;;10.90;99.90;;;;;;5036261;28;20515;-64
2023/07/05 04:26:05;;;;;;;9.13;2.28;;;10.90;99.90;;;;;;5044294;28;20483;-64
2023/07/05 04:28:32;;;;;;;3.72;1.70;;;11.00;99.90;;;;;;5041549;28;20049;-63
2023/07/05 04:30:59;;;;;;;11.25;2.58;;;11.00;99.90;;;;;;5015079;28;20041;-64
2023/07/05 04:33:26;;;;;;;3.63;2.25;;;11.00;99.90;;;;;;5036881;28;20100;-64
2023/07/05 04:35:55;;;;;;;9.05;2.30;;;11.00;99.90;;;;;;5045925;28;20049;-64
2023/07/05 04:38:22;;;;;;;7.35;2.30;;;11.00;99.90;;;;;;5036301;28;20402;-63
2023/07/05 04:40:49;;;;;;;7.97;3.10;;;11.00;99.90;;;;;;5026590;28;20055;-63
2023/07/05 04:43:16;;;;;;;11.18;2.92;;;11.00;99.90;;;;;;5037796;28;20381;-64
2023/07/05 04:45:53;;;;;;;10.68;3.10;;;11.10;99.90;;;;;;5043232;28;20052;-63
2023/07/05 04:48:20;;;;;;;17.52;3.08;;;11.10;99.90;;;;;;5037577;28;20065;-64
2023/07/05 04:50:54;;;;;;;12.07;3.08;;;11.10;99.90;;;;;;5045382;28;20106;-64
2023/07/05 04:53:22;;;;;;;13.18;2.67;;;11.20;99.90;;;;;;5037728;28;20455;-63
2023/07/05 04:55:51;;;;;;;6.50;2.78;;;11.20;99.90;;;;;;5040637;28;20053;-63
2023/07/05 04:58:18;;;;;;;8.93;3.05;;;11.30;99.90;;;;;;5040638;28;20044;-63
2023/07/05 05:00:51;;;;;;;7.28;2.78;;;11.30;99.90;;;;;;5048753;28;20049;-64
2023/07/05 05:03:20;;;;;;;12.75;3.13;;;11.30;99.90;;;;;;5027598;28;20049;-64
2023/07/05 05:05:52;;;;;;;10.77;3.05;;;11.40;99.90;;;;;;5039047;28;20045;-63
2023/07/05 05:08:22;;;;;;;8.30;2.30;;;11.40;99.90;;;;;;5038577;28;20095;-63
2023/07/05 05:10:57;;;;;;;7.38;3.17;;;11.40;99.90;;;;;;5045659;28;20049;-64
2023/07/05 05:13:23;;;;;;;6.32;3.17;;;11.50;99.90;;;;;;5022620;28;20052;-64
2023/07/05 05:15:51;;;;;;;9.55;2.97;;;11.50;99.90;;;;;;5039405;28;20099;-63
2023/07/05 05:18:18;;;;;;;11.60;3.20;;;11.60;99.90;;;;;;5034013;28;20045;-64
2023/07/05 05:20:45;;;;;;;7.60;2.58;;;11.60;99.90;;;;;;5030208;28;20044;-63
2023/07/05 05:23:12;;;;;;;7.18;2.75;;;11.60;99.90;;;;;;5046268;28;20063;-64
2023/07/05 05:25:42;;;;;;;6.38;2.50;;;11.70;99.90;;;;;;5025304;28;20052;-64
2023/07/05 05:28:09;;;;;;;6.15;2.83;;;11.70;99.90;;;;;;5029815;28;20041;-64
2023/07/05 05:30:36;;;;;;;6.25;2.65;;;11.80;99.90;;;;;;5040486;28;20045;-64
2023/07/05 05:33:03;;;;;;;9.07;2.55;;;11.80;99.90;;;;;;5032083;28;20055;-64
2023/07/05 05:35:31;;;;;;;8.85;2.50;;;11.90;99.90;;;;;;5039601;28;20476;-64
2023/07/05 05:37:58;;;;;;;10.68;3.22;;;11.90;99.90;;;;;;5030530;28;20044;-64
2023/07/05 05:40:24;;;;;;;8.73;3.03;;;11.90;99.90;;;;;;5022523;28;20045;-64
2023/07/05 05:42:51;;;;;;;9.50;2.88;;;11.90;99.90;;;;;;5032283;28;20144;-63
2023/07/05 05:45:18;;;;;;;10.00;3.25;;;12.00;99.90;;;;;;5037849;28;20419;-63
2023/07/05 05:47:45;;;;;;;9.32;2.67;;;12.10;99.90;;;;;;5033666;28;20068;-63
2023/07/05 05:50:12;;;;;;;10.02;2.90;;;12.10;99.90;;;;;;5036623;28;20068;-64
2023/07/05 05:52:39;;;;;;;9.48;2.72;;;12.20;99.90;;;;;;5030254;28;20048;-62
2023/07/05 05:55:06;;;;;;;12.13;3.17;;;12.10;99.90;;;;;;5039427;28;20060;-63
2023/07/05 05:57:33;;;;;;;9.93;3.00;;;12.20;99.90;;;;;;5034064;28;20463;-63
2023/07/05 05:59:59;;;;;;;11.05;3.47;;;12.20;99.90;;;;;;5037942;28;20044;-63
2023/07/05 06:02:26;;;;;;;9.38;3.35;;;12.30;99.90;;;;;;5036609;28;20083;-63
2023/07/05 06:04:53;;;;;;;14.18;2.95;;;12.30;99.90;;;;;;5040507;28;20139;-63
2023/07/05 06:07:20;;;;;;;8.45;3.80;;;12.40;99.90;;;;;;5021410;28;20492;-63
2023/07/05 06:09:47;;;;;;;10.05;3.17;;;12.40;99.90;;;;;;4685660;28;10000171;-63
2023/07/05 06:12:14;;;;;;;14.65;3.90;;;12.40;99.90;;;;;;5029163;28;20057;-64
2023/07/05 06:14:41;;;;;;;11.02;3.15;;;12.50;99.90;;;;;;5042350;28;20488;-64
2023/07/05 06:17:09;;;;;;;9.65;2.40;;;12.60;99.90;;;;;;5030360;28;20048;-64
2023/07/05 06:19:36;;;;;;;8.43;2.63;;;12.60;99.90;;;;;;5020952;28;20037;-64
2023/07/05 06:22:03;;;;;;;7.65;2.33;;;12.60;99.90;;;;;;5043361;28;20076;-64
2023/07/05 06:24:31;;;;;;;6.90;2.50;;;12.60;99.90;;;;;;5034257;28;20148;-63
2023/07/05 06:26:59;;;;;;;12.27;3.33;;;12.70;99.90;;;;;;5043152;28;20125;-64
2023/07/05 06:29:28;;;;;;;13.55;3.28;;;12.70;99.90;;;;;;5039948;28;20103;-63
2023/07/05 06:31:54;;;;;;;7.78;3.05;;;12.80;99.90;;;;;;5043264;28;20060;-63
2023/07/05 06:34:23;;;;;;;5.60;2.25;;;12.80;99.90;;;;;;5051394;28;20048;-62
2023/07/05 06:36:50;;;;;;;9.10;2.72;;;12.80;99.90;;;;;;5041203;28;20478;-63
2023/07/05 06:39:18;;;;;;;9.80;3.60;;;12.80;99.90;;;;;;5039216;28;20103;-61
2023/07/05 06:41:47;;;;;;;9.75;3.65;;;12.80;99.90;;;;;;5039000;28;20045;-61
2023/07/05 06:44:14;;;;;;;8.68;2.92;;;12.90;99.90;;;;;;5040343;28;20064;-62
2023/07/05 06:46:41;;;;;;;7.55;2.83;;;12.90;99.90;;;;;;5036768;28;20060;-61
2023/07/05 06:49:07;;;;;;;5.28;3.10;;;13.00;99.90;;;;;;5049314;28;20488;-62
2023/07/05 06:51:34;;;;;;;13.95;3.25;;;13.10;99.90;;;;;;5043495;28;20111;-62
2023/07/05 06:54:01;;;;;;;7.03;2.45;;;13.30;99.90;;;;;;5041749;28;20056;-62
2023/07/05 06:56:28;;;;;;;8.65;3.40;;;13.40;99.90;;;;;;5035531;28;20053;-63
2023/07/05 06:58:55;;;;;;;9.05;3.15;;;13.50;99.90;;;;;;5047570;28;20541;-62
2023/07/05 07:01:22;;;;;;;4.65;2.45;;;13.60;99.90;;;;;;5044607;28;20056;-64
2023/07/05 07:03:48;;;;;;;4.88;2.67;;;13.70;99.90;;;;;;5038025;28;20045;-62
2023/07/05 07:06:15;;;;;;;7.80;2.67;;;13.80;99.90;;;;;;5045099;28;20060;-62
2023/07/05 07:08:42;;;;;;;11.68;3.45;;;13.80;99.90;;;;;;5037569;28;20050;-62
2023/07/05 07:11:10;;;;;;;7.32;2.85;;;13.80;99.90;;;;;;5045221;28;20052;-64
2023/07/05 07:13:37;;;;;;;8.13;2.65;;;13.80;99.90;;;;;;5043198;28;20495;-61
2023/07/05 07:16:11;;;;;;;10.10;3.90;;;13.80;99.90;;;;;;5033978;28;20049;-61
2023/07/05 07:18:40;;;;;;;7.13;3.33;;;13.80;99.90;;;;;;5040690;28;20074;-61
2023/07/05 07:21:09;;;;;;;8.63;2.75;;;13.80;99.90;;;;;;5034557;28;20045;-62
2023/07/05 07:23:36;;;;;;;10.10;3.42;;;13.80;99.90;;;;;;5043014;28;20179;-61
2023/07/05 07:26:16;;;;;;;7.50;4.07;;;13.90;99.90;;;;;;5050177;28;20083;-62
2023/07/05 07:28:47;;;;;;;10.77;3.42;;;13.90;99.90;;;;;;5033205;28;20044;-62
2023/07/05 07:31:25;;;;;;;9.30;3.55;;;13.90;99.90;;;;;;5032169;28;20052;-62
2023/07/05 07:33:52;;;;;;;11.68;4.50;;;14.00;99.90;;;;;;5038700;28;20084;-62
2023/07/05 07:36:21;;;;;;;9.35;3.78;;;14.10;99.90;;;;;;5025953;28;20048;-61
2023/07/05 07:38:47;;;;;;;8.50;3.88;;;14.10;99.90;;;;;;5039253;28;20095;-62
2023/07/05 07:41:25;;;;;;;8.38;4.38;;;14.10;99.90;;;;;;5041428;28;20090;-63
2023/07/05 07:43:53;;;;;;;9.88;4.35;;;14.10;99.90;;;;;;5040082;28;20048;-62
2023/07/05 07:46:22;;;;;;;6.43;4.20;;;14.30;99.90;;;;;;5031580;28;20056;-64
2023/07/05 07:48:51;;;;;;;11.93;3.67;;;14.40;99.90;;;;;;5041473;28;20049;-61
2023/07/05 07:51:18;;;;;;;7.88;4.20;;;14.50;99.90;;;;;;5039268;28;20083;-63
2023/07/05 07:54:04;;;;;;;6.68;3.90;;;14.60;99.90;;;;;;5038110;28;20111;-62
2023/07/05 07:56:31;;;;;;;8.25;4.30;;;14.70;99.90;;;;;;5028807;28;20060;-62
2023/07/05 07:59:00;;;;;;;15.07;3.97;;;14.80;99.90;;;;;;5021100;28;20224;-61
2023/07/05 08:01:32;;;;;;;7.70;3.97;;;14.80;99.90;;;;;;5040185;28;20057;-60
2023/07/05 08:04:01;;;;;;;8.05;3.97;;;14.90;99.90;;;;;;5018462;28;20045;-61
2023/07/05 08:06:31;;;;;;;6.55;3.83;;;15.00;99.90;;;;;;5040186;28;20045;-61
2023/07/05 08:08:58;;;;;;;10.63;4.20;;;15.00;99.90;;;;;;5033959;28;20041;-61
2023/07/05 08:11:25;;;;;;;7.90;3.13;;;15.10;99.90;;;;;;5040056;28;20063;-62
2023/07/05 08:13:52;;;;;;;8.45;3.55;;;15.20;99.90;;;;;;4999592;28;20551;-61
2023/07/05 08:16:19;;;;;;;5.05;2.97;;;15.20;99.90;;;;;;5038787;28;20049;-62
2023/07/05 08:18:46;;;;;;;5.18;2.97;;;15.20;99.90;;;;;;4681988;28;10000562;-62
2023/07/05 08:21:14;;;;;;;6.50;3.63;;;15.20;99.90;;;;;;5039865;28;20132;-62
2023/07/05 08:23:42;;;;;;;7.15;3.08;;;15.10;99.90;;;;;;5030774;28;20046;-62
2023/07/05 08:26:09;;;;;;;3.97;3.17;;;15.30;99.90;;;;;;5039983;28;20053;-62
2023/07/05 08:28:37;;;;;;;5.60;2.47;;;15.30;99.90;;;;;;5030945;28;20040;-62
2023/07/05 08:31:04;;;;;;;10.25;3.45;;;15.30;99.90;;;;;;5035687;28;20056;-61
2023/07/05 08:33:31;;;;;;;7.68;3.00;;;15.40;99.90;;;;;;5042397;28;20052;-61
2023/07/05 08:36:13;;;;;;;5.00;2.67;;;15.50;99.90;;;;;;5029060;28;20056;-62
2023/07/05 08:38:49;;;;;;;5.65;3.25;;;15.50;99.90;;;;;;5032153;28;20140;-62
2023/07/05 08:41:44;;;;;;;5.70;2.88;;;15.50;99.90;;;;;;5026261;28;20047;-61
2023/07/05 08:44:39;;;;;;;4.53;2.75;;;15.60;99.90;;;;;;5043063;28;20120;-61
2023/07/05 08:47:08;;;;;;;6.28;3.38;;;15.80;99.90;;;;;;5040395;28;20515;-61
2023/07/05 08:49:37;;;;;;;3.90;2.28;;;15.60;99.90;;;;;;5039751;28;20041;-61
2023/07/05 08:52:04;;;;;;;5.63;2.65;;;15.60;99.90;;;;;;5036349;28;20151;-62
2023/07/05 08:54:33;;;;;;;7.47;2.38;;;15.70;99.90;;;;;;5027151;28;20037;-61
2023/07/05 08:57:05;;;;;;;8.50;3.25;;;16.00;99.90;;;;;;5011550;28;20508;-61
2023/07/05 08:59:51;;;;;;;5.43;2.17;;;15.90;99.90;;;;;;5032015;28;20053;-62
2023/07/05 09:02:19;;;;;;;6.85;2.85;;;16.00;99.90;;;;;;5027739;28;20091;-61
2023/07/05 09:04:48;;;;;;;10.48;3.55;;;16.00;99.90;;;;;;5044579;28;20603;-61
2023/07/05 09:07:22;;;;;;;6.60;2.10;;;16.00;99.90;;;;;;5035830;28;20060;-60
2023/07/05 09:10:18;;;;;;;10.65;2.92;;;16.00;99.90;;;;;;5026151;28;20048;-61
2023/07/05 09:13:07;;;;;;;5.53;2.17;;;15.90;99.90;;;;;;5020584;28;20046;-62
2023/07/05 09:15:42;;;;;;;12.43;4.25;;;15.90;99.90;;;;;;5014863;28;20495;-62
2023/07/05 09:18:16;;;;;;;4.28;2.40;;;15.90;99.90;;;;;;5010110;28;20051;-65
2023/07/05 09:20:58;;;;;;;8.43;2.88;;;15.80;99.90;;;;;;5033478;28;20041;-62
2023/07/05 09:23:37;;;;;;;5.03;2.72;;;15.70;99.90;;;;;;5043505;28;20704;-63
2023/07/05 09:26:16;;;;;;;7.15;2.55;;;15.80;99.90;;;;;;5018044;28;20080;-62
2023/07/05 09:28:53;;;;;;;5.82;2.47;;;15.90;99.90;;;;;;5024434;28;20041;-61
2023/07/05 09:31:22;;;;;;;5.30;2.38;;;16.10;99.90;;;;;;5003186;28;20053;-62
2023/07/05 09:33:55;;;;;;;5.25;2.42;;;16.20;99.90;;;;;;5022801;28;20045;-62
2023/07/05 09:36:23;;;;;;;4.75;2.28;;;16.30;99.90;;;;;;5011241;28;20060;-61
2023/07/05 09:38:57;;;;;;;4.28;2.63;;;16.40;99.90;;;;;;5029597;28;20095;-61
2023/07/05 09:41:54;;;;;;;6.85;2.88;;;16.50;99.90;;;;;;5032276;28;20055;-61
2023/07/05 09:44:20;;;;;;;3.60;2.00;;;16.70;99.90;;;;;;5014115;28;20060;-61
2023/07/05 09:46:47;;;;;;;3.67;1.70;;;16.80;99.90;;;;;;5028767;28;20053;-61
2023/07/05 09:49:15;;;;;;;6.15;1.98;;;17.00;99.90;;;;;;5022203;28;20052;-61
2023/07/05 09:51:44;;;;;;;3.90;2.45;;;17.30;99.90;;;;;;5023281;28;20053;-62
2023/07/05 09:54:14;;;;;;;3.72;1.85;;;17.30;99.90;;;;;;5042816;28;20041;-61
2023/07/05 09:57:01;;;;;;;7.03;2.10;;;17.40;99.90;;;;;;5011957;28;20072;-61
2023/07/05 09:59:28;;;;;;;4.35;2.10;;;17.10;99.90;;;;;;5040053;28;20045;-61
2023/07/05 10:02:11;;;;;;;5.13;2.10;;;17.00;99.90;;;;;;5044068;28;20504;-62
2023/07/05 10:04:45;;;;;;;6.67;2.00;;;16.80;99.90;;;;;;5024283;28;20045;-60
2023/07/05 10:07:20;;;;;;;6.85;1.95;;;16.60;99.90;;;;;;5031425;28;20056;-61
2023/07/05 10:10:05;;;;;;;7.88;2.40;;;16.60;99.90;;;;;;5040082;28;20456;-61
2023/07/05 10:12:34;;;;;;;3.88;2.03;;;16.60;99.90;;;;;;5038548;28;20443;-63
2023/07/05 10:15:01;;;;;;;6.93;2.28;;;16.50;99.90;;;;;;5056522;28;20103;-61
2023/07/05 10:17:42;;;;;;;4.15;2.15;;;16.40;99.90;;;;;;5030055;28;20049;-62
2023/07/05 10:20:21;;;;;;;4.00;2.08;;;16.50;99.90;;;;;;5042353;28;20076;-61
2023/07/05 10:22:48;;;;;;;8.10;2.40;;;16.90;99.90;;;;;;5032381;28;20044;-62
2023/07/05 10:25:18;;;;;;;2.92;1.60;;;17.00;99.90;;;;;;5029340;28;20519;-62
2023/07/05 10:27:48;;;;;;;5.50;2.00;;;16.90;99.90;;;;;;5012484;28;20046;-61
2023/07/05 10:30:20;;;;;;;3.13;1.70;;;16.90;99.90;;;;;;5028724;28;20048;-60
2023/07/05 10:32:51;;;;;;;4.82;2.03;;;17.00;99.90;;;;;;5030422;28;20071;-61
2023/07/05 10:35:26;;;;;;;2.45;1.75;;;17.10;99.90;;;;;;5039217;28;20052;-61
2023/07/05 10:37:53;;;;;;;4.40;1.80;;;17.10;99.90;;;;;;5012223;28;20046;-61
2023/07/05 10:40:21;;;;;;;9.50;2.03;;;17.50;99.90;;;;;;5038871;28;20523;-62
2023/07/05 10:42:51;;;;;;;5.40;2.28;;;18.00;99.90;;;;;;5014190;28;20497;-61
2023/07/05 10:45:19;;;;;;;6.38;2.15;;;18.60;99.90;;;;;;5026121;28;20171;-62
2023/07/05 10:47:47;;;;;;;5.88;1.90;;;18.60;99.90;;;;;;5013780;28;20049;-62
2023/07/05 10:50:14;;;;;;;2.65;1.42;;;18.70;99.90;;;;;;5003264;28;20045;-63
2023/07/05 10:53:13;;;;;;;10.35;2.25;;;18.60;99.90;;;;;;5027315;28;20049;-61
2023/07/05 10:55:53;;;;;;;4.15;1.60;;;18.60;99.90;;;;;;5011662;28;20121;-62
2023/07/05 10:58:21;;;;;;;8.93;2.05;;;18.40;99.90;;;;;;5028835;28;20052;-62
2023/07/05 11:00:55;;;;;;;4.53;1.45;;;18.60;99.90;;;;;;5032690;28;20073;-62
2023/07/05 11:03:32;;;;;;;4.95;1.33;;;18.80;99.90;;;;;;5026140;28;20061;-62
2023/07/05 11:06:00;;;;;;;3.42;1.60;;;19.10;99.90;;;;;;5032824;28;20124;-62
2023/07/05 11:08:28;;;;;;;7.80;2.17;;;19.00;99.90;;;;;;5002599;28;20053;-61
2023/07/05 11:11:04;;;;;;;2.67;1.30;;;18.70;99.90;;;;;;5008244;28;20557;-62
2023/07/05 11:13:31;;;;;;;3.78;2.05;;;18.60;99.90;;;;;;5030914;28;20041;-61
2023/07/05 11:15:58;;;;;;;5.45;1.63;;;18.60;99.90;;;;;;5042070;28;20049;-64
2023/07/05 11:18:27;;;;;;;9.45;1.60;;;18.50;99.90;;;;;;5009459;28;20053;-62
2023/07/05 11:20:57;;;;;;;2.80;1.85;;;18.40;99.90;;;;;;5032256;28;20048;-61
2023/07/05 11:23:42;;;;;;;3.58;1.80;;;18.30;99.90;;;;;;5047220;28;20063;-62
2023/07/05 11:26:32;;;;;;;4.78;1.63;;;18.20;99.90;;;;;;5025735;28;20056;-62
2023/07/05 11:28:59;;;;;;;3.58;1.63;;;17.80;99.90;;;;;;5043564;28;20074;-61
2023/07/05 11:31:29;;;;;;;5.03;1.83;;;17.90;99.90;;;;;;5030668;28;20070;-60
2023/07/05 11:34:22;;;;;;;2.50;1.48;;;17.80;99.90;;;;;;5049190;28;20110;-61
2023/07/05 11:37:09;;;;;;;6.65;1.77;;;18.00;99.90;;;;;;5039071;28;20049;-61
2023/07/05 11:39:42;;;;;;;1.50;1.15;;;18.30;99.90;;;;;;5009601;28;20095;-61
2023/07/05 11:42:12;;;;;;;2.40;1.45;;;18.50;99.90;;;;;;5051762;28;20061;-60
2023/07/05 11:44:46;;;;;;;1.63;0.95;;;18.70;99.90;;;;;;5031805;28;20060;-60
2023/07/05 11:47:22;;;;;;;2.60;1.25;;;18.80;99.90;;;;;;5039081;28;20136;-60
2023/07/05 11:49:51;;;;;;;2.40;1.15;;;18.70;99.90;;;;;;5044485;28;20060;-60
2023/07/05 11:52:19;;;;;;;5.43;1.10;;;18.70;99.90;;;;;;5038534;28;20049;-60
2023/07/05 11:54:53;;;;;;;8.52;1.10;;;18.80;99.90;;;;;;5037250;28;20065;-61
2023/07/05 11:57:20;;;;;;;2.45;1.48;;;18.90;99.90;;;;;;5028821;28;20052;-61
2023/07/05 12:00:12;;;;;;;3.03;1.40;;;19.00;99.90;;;;;;5007439;28;20052;-62
2023/07/05 12:02:46;;;;;;;1.50;1.05;;;19.00;99.90;;;;;;5038459;28;20060;-62
2023/07/05 12:05:21;;;;;;;3.55;1.67;;;19.10;99.90;;;;;;5017927;28;20259;-60
2023/07/05 12:07:52;;;;;;;1.65;0.88;;;19.20;99.90;;;;;;5038801;28;20049;-61
2023/07/05 12:10:22;;;;;;;2.45;1.30;;;19.40;99.90;;;;;;5031832;28;20094;-61
2023/07/05 12:12:48;;;;;;;2.47;1.20;;;19.70;99.90;;;;;;5020550;28;20103;-60
2023/07/05 12:15:16;;;;;;;1.20;1.00;;;19.90;99.90;;;;;;5038642;28;20409;-60
2023/07/05 12:17:43;;;;;;;4.95;1.15;;;19.90;99.90;;;;;;5037320;28;20069;-60
2023/07/05 12:20:25;;;;;;;2.95;1.05;;;19.70;99.90;;;;;;5004694;28;20041;-60
2023/07/05 12:22:52;;;;;;;4.90;1.50;;;19.60;99.90;;;;;;5038995;28;20042;-61
2023/07/05 12:25:19;;;;;;;1.98;1.00;;;19.40;99.90;;;;;;5023002;28;20069;-60
2023/07/05 12:27:46;;;;;;;4.93;1.40;;;19.00;99.90;;;;;;5019286;28;20214;-60
2023/07/05 12:30:18;;;;;;;2.85;1.20;;;18.50;99.90;;;;;;5020917;28;20068;-61
2023/07/05 12:32:53;;;;;;;6.82;1.83;;;17.60;99.90;;;;;;5042065;28;20057;-62
2023/07/05 12:35:27;;;;;;;2.85;1.42;;;16.70;99.90;;;;;;5046000;28;20495;-61
2023/07/05 12:37:56;;;;;;;4.13;1.27;;;16.10;99.90;;;;;;5041365;28;20077;-61
2023/07/05 12:40:24;;;;;;;2.40;1.30;;;15.90;99.90;;;;;;5040878;28;20131;-61
2023/07/05 12:42:56;;;;;;;4.20;1.17;;;15.70;99.90;;;;;;5034606;28;20052;-61
2023/07/05 12:45:37;;;;;;;7.15;2.20;;;15.70;99.90;;;;;;5041437;28;20199;-61
2023/07/05 12:48:19;;;;;;;3.88;2.33;;;15.70;99.90;;;;;;5034178;28;20102;-61
2023/07/05 12:50:46;;;;;;;4.70;1.13;;;16.00;99.90;;;;;;5020256;28;20040;-62
2023/07/05 12:53:21;;;;;;;3.33;1.50;;;16.20;99.90;;;;;;5043844;28;20081;-63
2023/07/05 12:56:18;;;;;;;3.35;1.00;;;16.50;99.90;;;;;;5029065;28;20048;-62
2023/07/05 12:58:50;;;;;;;2.22;1.40;;;16.80;99.90;;;;;;5023089;28;20412;-62
2023/07/05 13:01:18;;;;;;;4.80;2.33;;;17.00;99.90;;;;;;5023334;28;20136;-62
2023/07/05 13:03:46;;;;;;;3.42;1.70;;;17.30;99.90;;;;;;5034653;28;20045;-62